createdAt,value
2022-08-26T00:00:42.732Z,3.00
2022-08-26T00:03:14.359Z,3.80
2022-08-26T00:05:46.437Z,3.25
2022-08-26T00:08:17.955Z,3.50
2022-08-26T00:10:50.226Z,4.13
2022-08-26T00:13:21.983Z,3.73
2022-08-26T00:15:54.068Z,3.40
2022-08-26T00:18:25.925Z,3.77
2022-08-26T00:20:58.114Z,3.35
2022-08-26T00:23:29.655Z,4.13
2022-08-26T00:26:02.253Z,3.72
2022-08-26T00:28:33.768Z,3.50
2022-08-26T00:31:06.196Z,3.70
2022-08-26T00:33:38.479Z,4.43
2022-08-26T00:36:14.444Z,3.70
2022-08-26T00:38:52.067Z,4.10
2022-08-26T00:41:23.588Z,4.43
2022-08-26T00:43:55.539Z,3.72
2022-08-26T00:46:29.180Z,4.30
2022-08-26T00:49:01.217Z,4.00
2022-08-26T00:54:06.042Z,3.92
2022-08-26T00:56:38.143Z,3.90
2022-08-26T00:59:10.016Z,3.72
2022-08-26T01:01:41.541Z,4.03
2022-08-26T01:04:13.493Z,3.58
2022-08-26T01:06:45.019Z,4.07
2022-08-26T01:09:17.200Z,4.10
2022-08-26T01:11:48.824Z,3.67
2022-08-26T01:14:20.851Z,3.50
2022-08-26T01:16:52.378Z,3.50
2022-08-26T01:19:23.900Z,3.58
2022-08-26T01:21:55.424Z,2.95
2022-08-26T01:24:27.996Z,3.40
2022-08-26T01:26:59.547Z,3.00
2022-08-26T01:29:31.426Z,3.33
2022-08-26T01:32:02.965Z,3.75
2022-08-26T01:34:37.039Z,3.15
2022-08-26T01:37:15.550Z,3.55
2022-08-26T01:39:48.066Z,3.17
2022-08-26T01:42:19.649Z,3.70
2022-08-26T01:44:51.827Z,3.35
2022-08-26T01:47:23.452Z,3.20
2022-08-26T01:49:55.385Z,3.10
2022-08-26T01:52:28.231Z,3.42
2022-08-26T01:55:00.472Z,3.72
2022-08-26T01:57:32.022Z,3.50
2022-08-26T02:00:04.362Z,3.17
2022-08-26T02:05:08.313Z,4.05
2022-08-26T02:07:39.850Z,4.47
2022-08-26T02:10:11.380Z,3.22
2022-08-26T02:12:42.924Z,3.78
2022-08-26T02:15:14.911Z,3.53
2022-08-26T02:17:48.803Z,3.65
2022-08-26T02:20:26.432Z,3.60
2022-08-26T02:22:58.890Z,3.80
2022-08-26T02:25:30.783Z,3.67
2022-08-26T02:28:02.338Z,3.63
2022-08-26T02:30:34.499Z,3.90
2022-08-26T02:35:39.823Z,3.13
2022-08-26T02:38:11.413Z,3.17
2022-08-26T02:40:44.187Z,2.88
2022-08-26T02:43:15.719Z,3.45
2022-08-26T02:45:47.936Z,3.38
2022-08-26T02:48:19.623Z,3.60
2022-08-26T02:50:51.488Z,3.60
2022-08-26T02:53:25.449Z,3.42
2022-08-26T02:55:57.375Z,3.35
2022-08-26T02:58:31.763Z,3.20
2022-08-26T03:01:04.984Z,3.40
2022-08-26T03:03:36.937Z,3.67
2022-08-26T03:06:08.893Z,3.50
2022-08-26T03:08:40.408Z,3.35
2022-08-26T03:11:12.749Z,3.70
2022-08-26T03:13:45.226Z,3.10
2022-08-26T03:16:17.204Z,3.33
2022-08-26T03:18:52.426Z,3.93
2022-08-26T03:21:24.400Z,3.30
2022-08-26T03:23:58.587Z,3.60
2022-08-26T03:26:30.811Z,3.17
2022-08-26T03:29:21.222Z,3.23
2022-08-26T03:31:53.589Z,3.50
2022-08-26T03:34:25.516Z,3.47
2022-08-26T03:36:57.243Z,3.53
2022-08-26T03:39:31.600Z,3.97
2022-08-26T03:42:04.296Z,3.38
2022-08-26T03:44:36.113Z,3.13
2022-08-26T03:47:11.720Z,3.88
2022-08-26T03:49:43.691Z,3.83
2022-08-26T03:52:16.753Z,3.88
2022-08-26T03:54:48.279Z,3.28
2022-08-26T03:57:19.844Z,3.55
2022-08-26T03:59:51.703Z,3.75
2022-08-26T04:02:23.321Z,3.67
2022-08-26T04:04:54.934Z,3.83
2022-08-26T04:07:27.064Z,3.97
2022-08-26T04:09:59.001Z,3.65
2022-08-26T04:12:30.631Z,3.90
2022-08-26T04:15:02.501Z,3.60
2022-08-26T04:17:34.527Z,4.15
2022-08-26T04:20:07.448Z,4.03
2022-08-26T04:22:39.000Z,3.80
2022-08-26T04:25:12.247Z,3.47
2022-08-26T04:27:43.763Z,3.45
2022-08-26T04:30:16.666Z,3.78
2022-08-26T04:35:25.641Z,3.60
2022-08-26T04:37:58.245Z,3.38
2022-08-26T04:40:30.206Z,3.17
2022-08-26T04:43:02.268Z,4.07
2022-08-26T04:45:34.138Z,3.80
2022-08-26T04:48:05.880Z,3.80
2022-08-26T04:50:43.437Z,3.53
2022-08-26T04:53:15.132Z,3.47
2022-08-26T04:55:48.387Z,3.92
2022-08-26T04:58:20.136Z,4.00
2022-08-26T05:00:52.523Z,4.22
2022-08-26T05:03:27.265Z,4.32
2022-08-26T05:06:02.536Z,3.67
2022-08-26T05:08:34.573Z,3.97
2022-08-26T05:11:06.200Z,3.42
2022-08-26T05:13:41.346Z,4.18
2022-08-26T05:16:13.250Z,4.03
2022-08-26T05:18:45.654Z,3.97
2022-08-26T05:21:18.246Z,3.42
2022-08-26T05:23:51.327Z,3.47
2022-08-26T05:26:23.369Z,3.33
2022-08-26T05:28:58.095Z,3.50
2022-08-26T05:34:03.865Z,4.07
2022-08-26T05:39:07.468Z,3.72
2022-08-26T05:41:39.348Z,3.63
2022-08-26T05:44:11.194Z,3.08
2022-08-26T05:46:44.113Z,4.53
2022-08-26T05:49:16.539Z,4.70
2022-08-26T05:51:48.134Z,4.18
2022-08-26T05:54:22.695Z,3.85
2022-08-26T05:56:54.201Z,3.77
2022-08-26T05:59:26.799Z,4.65
2022-08-26T06:01:59.681Z,3.90
2022-08-26T06:04:31.808Z,3.92
2022-08-26T06:07:03.521Z,4.50
2022-08-26T06:09:37.066Z,4.22
2022-08-26T06:12:12.887Z,4.05
2022-08-26T06:14:48.993Z,4.38
2022-08-26T06:17:20.643Z,3.97
2022-08-26T06:19:52.495Z,3.72
2022-08-26T06:22:59.310Z,3.90
2022-08-26T06:25:40.402Z,3.22
2022-08-26T06:28:13.444Z,3.60
2022-08-26T06:30:45.543Z,3.72
2022-08-26T06:33:17.199Z,3.77
2022-08-26T06:35:50.517Z,4.37
2022-08-26T06:38:22.311Z,3.92
2022-08-26T06:40:55.167Z,3.83
2022-08-26T06:45:58.626Z,3.90
2022-08-26T06:48:30.206Z,3.40
2022-08-26T06:51:02.054Z,4.25
2022-08-26T06:53:33.579Z,4.20
2022-08-26T06:56:06.555Z,4.32
2022-08-26T06:58:38.111Z,4.35
2022-08-26T07:01:11.699Z,4.82
2022-08-26T07:03:43.350Z,3.80
2022-08-26T07:06:21.359Z,4.03
2022-08-26T07:08:53.449Z,4.18
2022-08-26T07:11:25.489Z,3.63
2022-08-26T07:13:59.453Z,3.70
2022-08-26T07:16:32.190Z,3.97
2022-08-26T07:19:11.078Z,3.40
2022-08-26T07:21:42.933Z,3.88
2022-08-26T07:24:15.008Z,3.90
2022-08-26T07:26:46.682Z,4.00
2022-08-26T07:29:20.045Z,3.40
2022-08-26T07:31:56.363Z,3.53
2022-08-26T07:34:28.811Z,3.28
2022-08-26T07:39:33.029Z,3.55
2022-08-26T07:42:07.566Z,3.10
2022-08-26T07:44:40.523Z,3.33
2022-08-26T07:47:24.835Z,3.88
2022-08-26T07:49:57.913Z,2.97
2022-08-26T07:52:29.432Z,3.67
2022-08-26T07:55:01.396Z,4.28
2022-08-26T07:57:34.507Z,4.07
2022-08-26T08:00:07.426Z,3.38
2022-08-26T08:05:10.955Z,3.70
2022-08-26T08:07:45.598Z,3.60
2022-08-26T08:10:18.769Z,3.55
2022-08-26T08:12:52.613Z,4.53
2022-08-26T08:15:26.911Z,3.80
2022-08-26T08:18:00.647Z,4.13
2022-08-26T08:20:32.798Z,3.88
2022-08-26T08:23:05.120Z,3.83
2022-08-26T08:25:38.375Z,3.42
2022-08-26T08:28:10.036Z,3.15
2022-08-26T08:30:42.837Z,3.33
2022-08-26T08:35:46.757Z,3.60
2022-08-26T08:38:18.275Z,3.60
2022-08-26T08:40:50.224Z,3.60
2022-08-26T08:45:54.515Z,3.88
2022-08-26T08:48:27.822Z,3.35
2022-08-26T08:51:00.138Z,3.47
2022-08-26T08:53:31.682Z,3.22
2022-08-26T08:56:03.251Z,2.73
2022-08-26T08:58:36.384Z,3.03
2022-08-26T09:01:08.276Z,3.33
2022-08-26T09:03:41.824Z,3.75
2022-08-26T09:06:20.376Z,3.00
2022-08-26T09:08:52.245Z,3.40
2022-08-26T09:11:24.227Z,3.05
2022-08-26T09:13:56.255Z,3.10
2022-08-26T09:16:27.834Z,3.42
2022-08-26T09:18:59.711Z,3.33
2022-08-26T09:21:31.355Z,3.45
2022-08-26T09:24:03.341Z,2.80
2022-08-26T09:26:34.882Z,3.30
2022-08-26T09:29:09.072Z,3.20
2022-08-26T09:31:41.422Z,3.40
2022-08-26T09:34:17.285Z,3.78
2022-08-26T09:36:49.240Z,3.15
2022-08-26T09:39:21.067Z,3.33
2022-08-26T09:41:52.910Z,3.33
2022-08-26T09:44:25.468Z,3.50
2022-08-26T09:46:57.338Z,3.63
2022-08-26T09:49:35.111Z,3.30
2022-08-26T09:52:07.484Z,3.42
2022-08-26T09:57:12.836Z,3.63
2022-08-26T09:59:45.339Z,3.40
2022-08-26T10:02:16.930Z,3.38
2022-08-26T10:07:21.482Z,3.55
2022-08-26T10:09:53.401Z,3.43
2022-08-26T10:12:25.685Z,3.65
2022-08-26T10:14:57.240Z,2.97
2022-08-26T10:17:30.909Z,3.43
2022-08-26T10:20:03.090Z,3.42
2022-08-26T10:22:35.055Z,3.40
2022-08-26T10:25:06.631Z,3.17
2022-08-26T10:27:38.561Z,3.40
2022-08-26T10:30:22.816Z,3.63
2022-08-26T10:32:54.803Z,3.17
2022-08-26T10:35:27.059Z,3.28
2022-08-26T10:37:59.057Z,3.40
2022-08-26T10:40:31.258Z,2.80
2022-08-26T10:43:08.495Z,2.85
2022-08-26T10:45:42.781Z,3.22
2022-08-26T10:50:47.446Z,3.55
2022-08-26T10:55:57.016Z,3.20
2022-08-26T10:58:28.933Z,3.30
2022-08-26T11:01:22.826Z,3.85
2022-08-26T11:03:55.633Z,3.78
2022-08-26T11:06:29.662Z,3.92
2022-08-26T11:09:01.852Z,3.58
2022-08-26T11:11:35.148Z,3.85
2022-08-26T11:14:07.866Z,3.45
2022-08-26T11:16:42.929Z,3.30
2022-08-26T11:19:15.262Z,3.10
2022-08-26T11:21:47.907Z,3.47
2022-08-26T11:24:22.327Z,4.28
2022-08-26T11:26:56.173Z,4.07
2022-08-26T11:29:28.213Z,3.60
2022-08-26T11:31:59.863Z,4.00
2022-08-26T11:34:31.485Z,4.43
2022-08-26T11:37:04.053Z,4.03
2022-08-26T11:39:36.938Z,3.67
2022-08-26T11:42:10.543Z,4.38
2022-08-26T11:44:49.112Z,3.78
2022-08-26T11:47:22.519Z,3.67
2022-08-26T11:49:56.069Z,3.80
2022-08-26T11:52:29.179Z,3.65
2022-08-26T11:55:01.411Z,3.75
2022-08-26T11:57:33.421Z,3.72
2022-08-26T12:00:07.279Z,3.10
2022-08-26T12:02:40.310Z,2.65
2022-08-26T12:05:12.091Z,2.80
2022-08-26T12:07:44.496Z,2.90
2022-08-26T12:10:16.319Z,2.10
2022-08-26T12:12:48.174Z,2.15
2022-08-26T12:15:20.352Z,1.87
2022-08-26T12:17:54.325Z,1.55
2022-08-26T12:20:26.139Z,1.40
2022-08-26T12:22:58.834Z,1.80
2022-08-26T12:25:36.193Z,1.60
2022-08-26T12:28:08.544Z,1.30
2022-08-26T12:30:40.162Z,1.35
2022-08-26T12:33:22.915Z,1.70
2022-08-26T12:35:56.643Z,1.60
2022-08-26T12:38:28.799Z,1.33
2022-08-26T12:41:00.485Z,1.77
2022-08-26T12:43:32.083Z,1.70
2022-08-26T12:46:06.806Z,1.50
2022-08-26T12:48:39.048Z,1.58
2022-08-26T12:51:10.603Z,1.33
2022-08-26T12:53:42.588Z,1.67
2022-08-26T12:56:14.108Z,1.50
2022-08-26T12:58:46.341Z,1.77
2022-08-26T13:01:18.585Z,1.30
2022-08-26T13:03:50.521Z,1.63
2022-08-26T13:06:29.671Z,2.17
2022-08-26T13:09:01.589Z,1.65
2022-08-26T13:11:33.121Z,1.55
2022-08-26T13:14:06.973Z,1.67
2022-08-26T13:16:39.297Z,1.52
2022-08-26T13:19:11.342Z,1.57
2022-08-26T13:21:42.919Z,1.15
2022-08-26T13:24:14.768Z,1.15
2022-08-26T13:26:46.302Z,1.50
2022-08-26T13:29:18.222Z,2.00
2022-08-26T13:31:49.828Z,1.80
2022-08-26T13:34:21.885Z,1.50
2022-08-26T13:36:54.090Z,1.77
2022-08-26T13:39:26.137Z,1.90
2022-08-26T13:41:57.777Z,2.97
2022-08-26T13:44:29.345Z,2.47
2022-08-26T13:47:00.871Z,2.42
2022-08-26T13:49:32.730Z,1.73
2022-08-26T13:52:04.302Z,1.80
2022-08-26T13:54:36.511Z,1.60
2022-08-26T13:57:08.092Z,2.28
2022-08-26T13:59:40.017Z,1.80
2022-08-26T14:02:12.008Z,2.20
2022-08-26T14:04:43.924Z,2.05
2022-08-26T14:07:15.467Z,1.88
2022-08-26T14:09:47.363Z,1.85
2022-08-26T14:12:18.944Z,1.20
2022-08-26T14:14:50.833Z,2.10
2022-08-26T14:17:22.424Z,1.25
2022-08-26T14:19:54.498Z,1.77
2022-08-26T14:22:26.043Z,1.63
2022-08-26T14:24:58.004Z,2.22
2022-08-26T14:27:29.570Z,1.75
2022-08-26T14:30:01.517Z,2.00
2022-08-26T14:32:33.319Z,1.90
2022-08-26T14:35:05.238Z,1.65
2022-08-26T14:37:37.210Z,1.58
2022-08-26T14:40:09.304Z,1.80
2022-08-26T14:42:41.256Z,1.67
2022-08-26T14:45:13.790Z,1.80
2022-08-26T14:47:45.347Z,1.50
2022-08-26T14:50:17.782Z,1.98
2022-08-26T14:53:08.292Z,1.70
2022-08-26T14:55:39.878Z,2.08
2022-08-26T14:58:11.785Z,1.67
2022-08-26T15:00:43.306Z,1.50
2022-08-26T15:05:51.668Z,1.80
2022-08-26T15:08:23.688Z,1.67
2022-08-26T15:10:55.267Z,1.93
2022-08-26T15:13:27.366Z,1.60
2022-08-26T15:15:59.013Z,1.30
2022-08-26T15:18:31.934Z,1.55
2022-08-26T15:21:03.478Z,1.38
2022-08-26T15:23:35.557Z,1.27
2022-08-26T15:26:07.407Z,1.20
2022-08-26T15:28:39.307Z,1.60
2022-08-26T15:31:10.983Z,2.00
2022-08-26T15:33:43.139Z,2.22
2022-08-26T15:36:14.707Z,2.53
2022-08-26T15:38:46.570Z,2.25
2022-08-26T15:41:18.093Z,2.22
2022-08-26T15:43:49.984Z,2.42
2022-08-26T15:46:21.575Z,2.20
2022-08-26T15:48:53.566Z,2.20
2022-08-26T15:51:25.143Z,2.50
2022-08-26T15:53:57.214Z,1.95
2022-08-26T15:56:28.811Z,2.20
2022-08-26T15:59:01.435Z,2.25
2022-08-26T16:01:33.566Z,2.03
2022-08-26T16:04:05.559Z,1.98
2022-08-26T16:06:37.141Z,2.77
2022-08-26T16:09:09.102Z,2.47
2022-08-26T16:11:40.888Z,2.42
2022-08-26T16:14:12.607Z,2.15
2022-08-26T16:16:44.143Z,2.30
2022-08-26T16:19:15.807Z,2.13
2022-08-26T16:21:47.986Z,2.60
2022-08-26T16:24:25.900Z,2.35
2022-08-26T16:26:58.822Z,2.03
2022-08-26T16:29:32.818Z,3.08
2022-08-26T16:32:08.615Z,2.60
2022-08-26T16:34:46.988Z,2.90
2022-08-26T16:37:28.073Z,2.47
2022-08-26T16:40:00.079Z,2.80
2022-08-26T16:42:31.716Z,2.57
2022-08-26T16:45:03.564Z,2.45
2022-08-26T16:47:35.140Z,2.42
2022-08-26T16:50:08.691Z,2.90
2022-08-26T16:52:40.309Z,2.78
2022-08-26T16:55:12.236Z,2.47
2022-08-26T16:57:43.757Z,2.35
2022-08-26T17:00:17.341Z,2.17
2022-08-26T17:02:49.236Z,2.45
2022-08-26T17:05:21.134Z,2.65
2022-08-26T17:07:52.884Z,2.45
2022-08-26T17:10:24.851Z,2.40
2022-08-26T17:12:56.560Z,2.85
2022-08-26T17:15:28.420Z,2.83
2022-08-26T17:18:00.449Z,2.70
2022-08-26T17:20:32.323Z,2.78
2022-08-26T17:23:04.257Z,2.67
2022-08-26T17:25:35.854Z,2.25
2022-08-26T17:28:13.177Z,2.28
2022-08-26T17:30:45.143Z,2.67
2022-08-26T17:33:18.664Z,2.45
2022-08-26T17:35:53.717Z,2.30
2022-08-26T17:38:25.626Z,2.80
2022-08-26T17:40:57.466Z,2.85
2022-08-26T17:43:29.670Z,2.42
2022-08-26T17:46:06.628Z,3.33
2022-08-26T17:48:39.152Z,2.85
2022-08-26T17:51:11.047Z,3.55
2022-08-26T17:53:42.961Z,3.05
2022-08-26T17:56:14.557Z,2.13
2022-08-26T17:58:51.036Z,2.95
2022-08-26T18:01:23.639Z,3.17
2022-08-26T18:04:00.074Z,2.83
2022-08-26T18:06:32.545Z,2.47
2022-08-26T18:09:04.154Z,3.00
2022-08-26T18:11:35.711Z,2.78
2022-08-26T18:14:07.275Z,2.83
2022-08-26T18:16:39.497Z,2.90
2022-08-26T18:19:11.040Z,3.13
2022-08-26T18:21:42.620Z,3.22
2022-08-26T18:24:14.509Z,3.30
2022-08-26T18:26:49.489Z,2.85
2022-08-26T18:29:21.882Z,3.13
2022-08-26T18:31:53.452Z,3.53
2022-08-26T18:34:25.052Z,3.13
2022-08-26T18:37:03.363Z,3.53
2022-08-26T18:39:35.084Z,3.45
2022-08-26T18:42:06.641Z,3.80
2022-08-26T18:44:38.567Z,2.95
2022-08-26T18:47:10.074Z,3.72
2022-08-26T18:49:42.038Z,3.78
2022-08-26T18:52:13.572Z,3.65
2022-08-26T18:54:45.217Z,3.85
2022-08-26T18:57:17.253Z,4.40
2022-08-26T18:59:49.119Z,4.30
2022-08-26T19:02:20.719Z,3.35
2022-08-26T19:04:52.827Z,4.03
2022-08-26T19:07:25.371Z,4.45
2022-08-26T19:09:57.305Z,4.20
2022-08-26T19:12:30.000Z,3.90
2022-08-26T19:15:04.333Z,4.30
2022-08-26T19:17:36.191Z,6.03
2022-08-26T19:20:07.728Z,5.93
2022-08-26T19:22:39.733Z,4.32
2022-08-26T19:25:11.300Z,4.43
2022-08-26T19:27:42.885Z,4.95
2022-08-26T19:30:15.069Z,4.63
2022-08-26T19:32:47.083Z,4.93
2022-08-26T19:35:18.606Z,4.97
2022-08-26T19:37:50.456Z,4.93
2022-08-26T19:40:23.365Z,4.10
2022-08-26T19:42:54.952Z,4.18
2022-08-26T19:45:26.518Z,3.85
2022-08-26T19:47:58.798Z,4.32
2022-08-26T19:50:30.333Z,4.18
2022-08-26T19:53:04.380Z,4.40
2022-08-26T19:55:36.042Z,3.90
2022-08-26T19:58:08.037Z,4.43
2022-08-26T20:00:42.109Z,4.10
2022-08-26T20:03:16.018Z,4.20
2022-08-26T20:05:48.800Z,4.30
2022-08-26T20:08:22.812Z,4.82
2022-08-26T20:10:54.441Z,4.72
2022-08-26T20:13:26.521Z,4.75
2022-08-26T20:15:58.062Z,4.17
2022-08-26T20:18:48.486Z,3.85
2022-08-26T20:21:29.484Z,3.88
2022-08-26T20:24:01.358Z,3.97
2022-08-26T20:26:32.898Z,3.83
2022-08-26T20:29:04.735Z,4.35
2022-08-26T20:31:36.312Z,4.13
2022-08-26T20:34:08.359Z,4.00
2022-08-26T20:36:39.920Z,4.10
2022-08-26T20:39:11.798Z,3.28
2022-08-26T20:41:43.819Z,3.70
2022-08-26T20:44:17.072Z,3.57
2022-08-26T20:46:48.586Z,3.63
2022-08-26T20:49:20.439Z,3.95
2022-08-26T20:51:52.027Z,3.92
2022-08-26T20:54:28.149Z,3.55
2022-08-26T20:57:00.096Z,3.80
2022-08-26T20:59:31.911Z,3.40
2022-08-26T21:02:03.459Z,4.07
2022-08-26T21:04:35.429Z,4.30
2022-08-26T21:07:07.399Z,3.75
2022-08-26T21:09:38.922Z,3.90
2022-08-26T21:12:10.842Z,3.22
2022-08-26T21:14:44.771Z,3.42
2022-08-26T21:17:19.339Z,4.03
2022-08-26T21:19:51.103Z,3.25
2022-08-26T21:22:22.925Z,2.85
2022-08-26T21:24:54.453Z,2.85
2022-08-26T21:27:26.703Z,3.13
2022-08-26T21:29:59.454Z,3.70
2022-08-26T21:32:31.300Z,4.15
2022-08-26T21:35:02.831Z,3.65
2022-08-26T21:37:34.690Z,3.40
2022-08-26T21:40:06.924Z,2.78
2022-08-26T21:42:38.946Z,3.53
2022-08-26T21:45:10.466Z,3.20
2022-08-26T21:47:42.583Z,2.85
2022-08-26T21:50:14.111Z,2.70
2022-08-26T21:52:46.204Z,3.15
2022-08-26T21:55:17.876Z,3.30
2022-08-26T21:57:49.903Z,2.90
2022-08-26T22:00:21.532Z,3.30
2022-08-26T22:02:53.504Z,2.75
2022-08-26T22:05:25.042Z,3.70
2022-08-26T22:07:56.913Z,2.88
2022-08-26T22:10:28.428Z,3.47
2022-08-26T22:13:00.383Z,3.38
2022-08-26T22:15:35.293Z,3.40
2022-08-26T22:18:09.363Z,3.42
2022-08-26T22:20:41.007Z,3.88
2022-08-26T22:23:12.927Z,3.30
2022-08-26T22:25:44.456Z,3.55
2022-08-26T22:28:16.340Z,3.45
2022-08-26T22:30:48.404Z,3.47
2022-08-26T22:33:20.298Z,3.73
2022-08-26T22:35:53.094Z,4.25
2022-08-26T22:38:25.134Z,3.60
2022-08-26T22:40:57.212Z,3.40
2022-08-26T22:43:30.447Z,3.47
2022-08-26T22:46:03.678Z,2.97
2022-08-26T22:48:35.557Z,3.90
2022-08-26T22:51:07.549Z,3.10
2022-08-26T22:53:42.165Z,3.42
2022-08-26T22:56:15.419Z,3.00
2022-08-26T22:58:47.792Z,2.88
2022-08-26T23:01:20.740Z,3.15
2022-08-26T23:06:24.920Z,2.60
2022-08-26T23:08:56.694Z,3.03
2022-08-26T23:11:28.804Z,2.40
2022-08-26T23:14:02.847Z,2.70
2022-08-26T23:16:39.409Z,2.65
2022-08-26T23:19:11.252Z,2.58
2022-08-26T23:21:43.210Z,2.40
2022-08-26T23:24:14.828Z,2.45
2022-08-26T23:26:46.791Z,2.85
2022-08-26T23:29:18.456Z,2.72
2022-08-26T23:31:51.045Z,2.35
2022-08-26T23:34:41.598Z,2.28
2022-08-26T23:37:13.565Z,2.38
2022-08-26T23:39:45.582Z,2.92
2022-08-26T23:42:17.992Z,2.67
2022-08-26T23:44:49.706Z,2.70
2022-08-26T23:47:21.898Z,2.95
2022-08-26T23:49:53.534Z,2.57
2022-08-26T23:52:44.481Z,2.58
2022-08-26T23:55:16.686Z,3.03
2022-08-26T23:57:48.415Z,2.73
